Moody Air Force Base
KVAD : now visible

Airfield :











YOU CAN JOIN US ON...

 
LOGIN :

Register | Disclaimer

   EN    FR    IT 

 









Legend :    VFR   Marginal VFR   IFR   Intensive IFR   Very Intensive IFR
Visi :
Ceiling :
>= 8 km
>= 3000ft
5 to 8 km
1000 to 3000 ft
1500m to 5 km
500 to 1000 ft
800 to 1500m
200 to 500 ft
< 800m
< 200 ft
Symbols :   Thunderstorms  Fog  Heavy snow  Heavy precipitations  Wind > 20 kt






- Airport Elevation : 233 ft


KVAD - Moody Air Force Base

CURRENT METAR :
  • 220456Z AUTO 18005KT 10SM FEW120 22/21 A3001 RMK AO2 RAB08E49RAB49E49 SLP163 P0000 T02240210 403010224 $

EXPIRED METARs :
  • 220408Z AUTO 20005KT 10SM -RA BKN100 OVC130 23/21 A3002 RMK AO2 RAB08 SLP166 $
  • 220256Z AUTO 22008KT 10SM OVC120 23/20 A3003 RMK AO2 RAB15E26RAB26E26 SLPNO P0000 60000 T02310200 52010 $
  • 220226Z AUTO 23008KT 10SM OVC120 23/20 A3002 RMK AO2 RAB15E26RAB26 SLPNO $
  • 220215Z AUTO 22007KT 10SM -RA BKN130 OVC160 23/20 A3002 RMK AO2 RAB15 SLPNO $

Expired Forecast.
KZJX FIR / North America



MET'MAP, your aeronautical weather chart ! - Copyright ORBIFLY December 2007 - Disclaimer

ORBIFLY MET'MAP TEAM :

Programming & Development : Alexandra Zaïnal
Concept & original design : Baudouin d'Aumeries
Assistance for programming : Marc-Olivier Méhu
Technical & hardware support : Manuel Goepfert

Contact : metmap@orbifly.com




SOURCES & CREDITS :

   NOAA       Earth
Advisory